Time;durP1;ratioP1;P1;durP2;ratioP2;P2;SDS_P1;SDS_P2;PMS_P1;PMS_P2;Temp;Humidity;BMP_temperature;BMP_pressure;BME280_temperature;BME280_humidity;BME280_pressure;Samples;Min_cycle;Max_cycle;Signal;HPM_P1;HPM_P2
2023/12/02 00:04:06;;;;;;;23.38;16.75;;;;;;;;;;12823050;22;20033;-72
2023/12/02 00:09:02;;;;;;;21.00;15.77;;;;;;;;;;12825037;22;20390;-72
2023/12/02 00:13:59;;;;;;;23.90;17.10;;;;;;;;;;12824479;22;20034;-72
2023/12/02 00:18:55;;;;;;;19.70;14.35;;;;;;;;;;12824418;22;20030;-71
2023/12/02 00:23:52;;;;;;;21.85;16.33;;;;;;;;;;12824799;22;20057;-73
2023/12/02 00:28:48;;;;;;;24.40;16.17;;;;;;;;;;12824891;22;20472;-72
2023/12/02 00:33:45;;;;;;;22.83;16.50;;;;;;;;;;12822250;22;20477;-72
2023/12/02 00:38:41;;;;;;;21.67;15.68;;;;;;;;;;12822725;22;20078;-73
2023/12/02 00:43:37;;;;;;;21.52;16.08;;;;;;;;;;12823779;22;20031;-72
2023/12/02 00:48:34;;;;;;;19.98;14.32;;;;;;;;;;12824964;22;20453;-72
2023/12/02 00:53:30;;;;;;;19.75;15.32;;;;;;;;;;12823813;22;20027;-72
2023/12/02 00:58:27;;;;;;;17.90;14.73;;;;;;;;;;12823804;22;20023;-73
2023/12/02 01:03:36;;;;;;;18.42;14.05;;;;;;;;;;12823015;22;20027;-72
2023/12/02 01:08:32;;;;;;;20.33;15.00;;;;;;;;;;12824762;22;20023;-73
2023/12/02 01:13:29;;;;;;;19.83;15.05;;;;;;;;;;12822818;22;20019;-73
2023/12/02 01:18:25;;;;;;;20.52;14.88;;;;;;;;;;12824625;22;20027;-73
2023/12/02 01:23:21;;;;;;;18.50;13.93;;;;;;;;;;12823560;22;20095;-73
2023/12/02 01:28:18;;;;;;;20.77;14.30;;;;;;;;;;12824333;22;20031;-73
2023/12/02 01:33:14;;;;;;;17.73;13.40;;;;;;;;;;12823180;22;20035;-73
2023/12/02 01:38:11;;;;;;;17.73;13.65;;;;;;;;;;12823802;22;20027;-73
2023/12/02 01:43:07;;;;;;;20.25;13.10;;;;;;;;;;12822538;22;20054;-72
2023/12/02 01:48:04;;;;;;;20.98;13.75;;;;;;;;;;12822914;22;20098;-73
2023/12/02 01:53:00;;;;;;;18.48;14.45;;;;;;;;;;12822571;22;20044;-72
2023/12/02 01:57:56;;;;;;;17.52;14.15;;;;;;;;;;12822675;22;20023;-73
2023/12/02 02:02:53;;;;;;;21.55;13.77;;;;;;;;;;12821520;22;20033;-73
2023/12/02 02:07:49;;;;;;;20.15;13.75;;;;;;;;;;12823327;22;20570;-73
2023/12/02 02:12:46;;;;;;;18.30;14.50;;;;;;;;;;12822213;22;20457;-73
2023/12/02 02:17:42;;;;;;;18.38;13.88;;;;;;;;;;12823221;22;20069;-73
2023/12/02 02:22:38;;;;;;;18.98;13.30;;;;;;;;;;12821637;22;20027;-72
2023/12/02 02:27:35;;;;;;;16.52;12.90;;;;;;;;;;12822507;22;20023;-72
2023/12/02 02:32:31;;;;;;;16.45;12.43;;;;;;;;;;12822030;22;20027;-73
2023/12/02 02:37:28;;;;;;;18.13;13.48;;;;;;;;;;12821657;22;20026;-73
2023/12/02 02:42:24;;;;;;;17.50;13.07;;;;;;;;;;12819319;22;20453;-72
2023/12/02 02:47:20;;;;;;;22.00;14.55;;;;;;;;;;12820193;22;20019;-72
2023/12/02 02:52:17;;;;;;;20.98;13.25;;;;;;;;;;12821052;22;20026;-72
2023/12/02 02:57:14;;;;;;;20.48;13.75;;;;;;;;;;12821395;22;20031;-73
2023/12/02 03:02:10;;;;;;;21.45;14.02;;;;;;;;;;12818701;22;20023;-73
2023/12/02 03:07:07;;;;;;;20.60;13.18;;;;;;;;;;12822099;22;20056;-73
2023/12/02 03:12:03;;;;;;;21.17;13.52;;;;;;;;;;12819645;22;20046;-74
2023/12/02 03:17:00;;;;;;;20.08;14.10;;;;;;;;;;12822477;22;20357;-73
2023/12/02 03:21:56;;;;;;;17.42;13.23;;;;;;;;;;12820077;22;20027;-72
2023/12/02 03:26:52;;;;;;;18.05;14.45;;;;;;;;;;12821387;22;20027;-73
2023/12/02 03:31:48;;;;;;;23.05;14.70;;;;;;;;;;12819368;22;20023;-73
2023/12/02 03:36:45;;;;;;;21.33;15.77;;;;;;;;;;12821767;22;20080;-73
2023/12/02 03:41:42;;;;;;;19.70;14.55;;;;;;;;;;12825145;22;20534;-73
2023/12/02 03:46:38;;;;;;;22.23;14.48;;;;;;;;;;12821835;22;20023;-72
2023/12/02 03:51:35;;;;;;;22.95;15.23;;;;;;;;;;12825438;22;20023;-73
2023/12/02 03:56:31;;;;;;;17.33;13.90;;;;;;;;;;12825093;22;20046;-73
2023/12/02 04:01:27;;;;;;;19.35;14.63;;;;;;;;;;12824805;22;20026;-73
2023/12/02 04:06:24;;;;;;;21.50;13.38;;;;;;;;;;12825447;22;20472;-72
2023/12/02 04:11:20;;;;;;;17.70;14.18;;;;;;;;;;12825190;22;20027;-72
2023/12/02 04:16:16;;;;;;;23.40;13.70;;;;;;;;;;12825465;22;20019;-72
2023/12/02 04:21:13;;;;;;;17.50;14.50;;;;;;;;;;12824959;22;20027;-73
2023/12/02 04:26:10;;;;;;;20.40;14.32;;;;;;;;;;12825564;22;20084;-73
2023/12/02 04:31:07;;;;;;;20.67;15.05;;;;;;;;;;12824533;22;20015;-73
2023/12/02 04:36:04;;;;;;;20.92;15.00;;;;;;;;;;12824430;22;20465;-73
2023/12/02 04:41:00;;;;;;;20.75;16.05;;;;;;;;;;12824711;22;20088;-73
2023/12/02 04:45:57;;;;;;;20.40;14.70;;;;;;;;;;12824198;22;20019;-73
2023/12/02 04:50:53;;;;;;;18.95;15.32;;;;;;;;;;12823288;22;20027;-73
2023/12/02 04:55:52;;;;;;;26.50;16.13;;;;;;;;;;12822320;22;20027;-73
2023/12/02 05:00:48;;;;;;;18.58;14.25;;;;;;;;;;12823791;22;20098;-73
2023/12/02 05:05:45;;;;;;;18.40;15.50;;;;;;;;;;12824135;22;20019;-73
2023/12/02 05:10:42;;;;;;;19.70;14.55;;;;;;;;;;12823238;22;20019;-73
2023/12/02 05:15:39;;;;;;;21.65;15.60;;;;;;;;;;12822546;22;20049;-72
2023/12/02 05:20:39;;;;;;;22.43;15.03;;;;;;;;;;12824206;22;20024;-73
2023/12/02 05:25:36;;;;;;;20.65;15.82;;;;;;;;;;12823341;22;20011;-73
2023/12/02 05:30:34;;;;;;;25.08;16.10;;;;;;;;;;12823839;22;20084;-72
2023/12/02 05:35:31;;;;;;;19.83;15.88;;;;;;;;;;12821696;22;20480;-73
2023/12/02 05:40:28;;;;;;;20.48;15.95;;;;;;;;;;12824135;22;20361;-73
2023/12/02 05:45:24;;;;;;;24.40;15.82;;;;;;;;;;12823313;22;20364;-72
2023/12/02 05:50:21;;;;;;;27.27;17.05;;;;;;;;;;12823201;22;20027;-72
2023/12/02 05:55:17;;;;;;;22.77;16.80;;;;;;;;;;12822331;22;20022;-73
2023/12/02 06:00:17;;;;;;;22.35;16.27;;;;;;;;;;12823544;22;20499;-73
2023/12/02 06:05:14;;;;;;;22.60;16.38;;;;;;;;;;12823250;22;20452;-72
2023/12/02 06:10:11;;;;;;;27.77;15.95;;;;;;;;;;12823101;22;20019;-73
2023/12/02 06:15:10;;;;;;;21.27;15.38;;;;;;;;;;12822172;22;20019;-73
2023/12/02 06:20:09;;;;;;;25.55;16.27;;;;;;;;;;12823069;22;20020;-73
2023/12/02 06:25:06;;;;;;;21.38;15.98;;;;;;;;;;12822556;22;20030;-72
2023/12/02 06:30:03;;;;;;;20.77;15.98;;;;;;;;;;12822529;22;20053;-73
2023/12/02 06:34:59;;;;;;;19.15;14.50;;;;;;;;;;12823435;22;20019;-72
2023/12/02 06:39:55;;;;;;;22.25;16.10;;;;;;;;;;12821735;22;20023;-72
2023/12/02 06:44:52;;;;;;;22.20;15.55;;;;;;;;;;12821659;22;20035;-72
2023/12/02 06:49:48;;;;;;;22.08;15.85;;;;;;;;;;12821117;22;20027;-72
2023/12/02 06:54:44;;;;;;;22.27;15.85;;;;;;;;;;12821759;22;20725;-72
2023/12/02 07:00:01;;;;;;;25.35;15.73;;;;;;;;;;12821290;22;20024;-72
2023/12/02 07:04:57;;;;;;;23.13;15.10;;;;;;;;;;12822468;22;20081;-72
2023/12/02 07:09:53;;;;;;;23.10;16.73;;;;;;;;;;12821345;22;20027;-72
2023/12/02 07:14:50;;;;;;;23.73;15.15;;;;;;;;;;12821159;22;20023;-73
2023/12/02 07:19:46;;;;;;;24.25;16.80;;;;;;;;;;12822051;22;20023;-72
2023/12/02 07:24:42;;;;;;;23.23;16.83;;;;;;;;;;12821754;22;20061;-72
2023/12/02 07:29:40;;;;;;;23.63;17.08;;;;;;;;;;12821230;22;20027;-72
2023/12/02 07:34:39;;;;;;;21.70;16.70;;;;;;;;;;12823269;22;20050;-72
2023/12/02 07:39:36;;;;;;;22.00;16.80;;;;;;;;;;12821872;22;20034;-73
2023/12/02 07:44:32;;;;;;;27.75;18.08;;;;;;;;;;12822081;22;20029;-72
2023/12/02 07:49:29;;;;;;;30.40;18.98;;;;;;;;;;12821354;22;20368;-73
2023/12/02 07:54:25;;;;;;;24.13;18.08;;;;;;;;;;12820666;22;20027;-72
2023/12/02 07:59:21;;;;;;;26.98;17.27;;;;;;;;;;12821009;22;20037;-72
2023/12/02 08:04:19;;;;;;;29.10;16.80;;;;;;;;;;12820706;22;20696;-72
2023/12/02 08:09:15;;;;;;;27.98;16.65;;;;;;;;;;12821521;22;20027;-73
2023/12/02 08:14:11;;;;;;;27.40;16.83;;;;;;;;;;12819483;22;20477;-72
2023/12/02 08:19:08;;;;;;;25.63;16.83;;;;;;;;;;12822228;22;20023;-72
2023/12/02 08:24:04;;;;;;;26.35;17.50;;;;;;;;;;12822195;22;20073;-72
2023/12/02 08:29:01;;;;;;;23.50;16.23;;;;;;;;;;12825138;22;20023;-72
2023/12/02 08:33:57;;;;;;;23.13;17.00;;;;;;;;;;12825160;22;20066;-72
2023/12/02 08:38:54;;;;;;;27.73;17.45;;;;;;;;;;12825528;22;20023;-72
2023/12/02 08:43:50;;;;;;;21.63;17.20;;;;;;;;;;12825250;22;20380;-72
2023/12/02 08:48:46;;;;;;;24.38;17.00;;;;;;;;;;12823369;22;20034;-72
2023/12/02 08:53:43;;;;;;;27.90;18.00;;;;;;;;;;12822339;22;20027;-72
2023/12/02 08:58:39;;;;;;;26.23;18.08;;;;;;;;;;12821873;22;20364;-73
2023/12/02 09:03:35;;;;;;;29.58;17.30;;;;;;;;;;12820054;22;20050;-72
2023/12/02 09:08:32;;;;;;;26.05;18.73;;;;;;;;;;12821235;22;20034;-73
2023/12/02 09:13:35;;;;;;;29.05;20.33;;;;;;;;;;12820169;22;20026;-73
2023/12/02 09:18:34;;;;;;;23.23;17.45;;;;;;;;;;12820359;22;20055;-72
2023/12/02 09:23:31;;;;;;;27.35;18.65;;;;;;;;;;12820443;22;20122;-72
2023/12/02 09:28:29;;;;;;;28.67;18.48;;;;;;;;;;12820191;22;20023;-73
2023/12/02 09:33:26;;;;;;;22.90;18.15;;;;;;;;;;12818786;22;20023;-72
2023/12/02 09:38:23;;;;;;;26.75;17.35;;;;;;;;;;12820078;22;20026;-72
2023/12/02 09:43:24;;;;;;;24.55;17.10;;;;;;;;;;12820589;22;20030;-72
2023/12/02 09:48:24;;;;;;;28.20;18.30;;;;;;;;;;12820600;22;20034;-72
2023/12/02 09:53:29;;;;;;;24.35;18.00;;;;;;;;;;12775363;22;1037665;-72
2023/12/02 09:58:58;;;;;;;22.50;16.33;;;;;;;;;;12823160;22;20031;-73
2023/12/02 10:04:04;;;;;;;22.38;17.38;;;;;;;;;;12804186;22;20019;-72
2023/12/02 10:09:08;;;;;;;24.90;17.45;;;;;;;;;;12823154;22;20023;-72
2023/12/02 10:14:08;;;;;;;25.23;17.85;;;;;;;;;;12822402;22;20027;-73
2023/12/02 10:19:06;;;;;;;22.77;17.05;;;;;;;;;;12822733;22;20137;-72
2023/12/02 10:24:10;;;;;;;26.00;18.02;;;;;;;;;;12822440;22;20027;-73
2023/12/02 10:29:18;;;;;;;26.77;17.63;;;;;;;;;;12822506;22;20019;-73
2023/12/02 10:34:28;;;;;;;25.02;17.98;;;;;;;;;;12822327;22;20019;-73
2023/12/02 10:39:37;;;;;;;23.05;17.17;;;;;;;;;;12822518;22;20057;-72
2023/12/02 10:44:33;;;;;;;22.30;17.30;;;;;;;;;;12822694;22;20031;-72
2023/12/02 10:49:30;;;;;;;25.02;17.63;;;;;;;;;;12821257;22;20023;-73
2023/12/02 10:54:32;;;;;;;21.73;17.10;;;;;;;;;;12821903;22;20023;-72
2023/12/02 10:59:29;;;;;;;22.50;16.15;;;;;;;;;;12821503;22;20439;-72
2023/12/02 11:04:31;;;;;;;23.58;15.40;;;;;;;;;;12822323;22;20031;-72
2023/12/02 11:09:36;;;;;;;19.48;14.10;;;;;;;;;;12820989;22;20455;-73
2023/12/02 11:14:37;;;;;;;17.63;14.02;;;;;;;;;;12821850;22;20022;-73
2023/12/02 11:19:49;;;;;;;18.45;13.98;;;;;;;;;;12821598;22;20019;-72
2023/12/02 11:24:45;;;;;;;17.58;14.07;;;;;;;;;;12821471;22;20027;-72
2023/12/02 11:29:48;;;;;;;16.75;13.57;;;;;;;;;;12821406;22;20046;-73
2023/12/02 11:34:48;;;;;;;16.33;12.43;;;;;;;;;;12821745;22;20069;-72
2023/12/02 11:39:47;;;;;;;14.38;11.65;;;;;;;;;;12821376;22;20090;-72
2023/12/02 11:45:02;;;;;;;13.07;10.40;;;;;;;;;;12821460;22;20019;-72
2023/12/02 11:49:58;;;;;;;10.75;8.82;;;;;;;;;;12820851;22;20024;-72
2023/12/02 11:55:03;;;;;;;12.13;9.30;;;;;;;;;;12821313;22;20019;-72
2023/12/02 12:00:06;;;;;;;11.60;9.68;;;;;;;;;;12823513;22;20015;-72
2023/12/02 12:05:03;;;;;;;13.88;9.82;;;;;;;;;;12825256;22;20019;-73
2023/12/02 12:10:07;;;;;;;11.43;9.23;;;;;;;;;;12826173;22;20027;-72
2023/12/02 12:15:04;;;;;;;10.55;9.00;;;;;;;;;;12826130;22;20046;-73
2023/12/02 12:20:20;;;;;;;10.80;9.35;;;;;;;;;;12823350;22;20465;-73
2023/12/02 12:25:16;;;;;;;10.00;9.00;;;;;;;;;;12825324;22;20637;-73
2023/12/02 12:30:12;;;;;;;12.60;9.50;;;;;;;;;;12824816;22;20023;-73
2023/12/02 12:35:10;;;;;;;13.10;9.00;;;;;;;;;;12825084;22;20015;-73
2023/12/02 12:40:07;;;;;;;11.38;9.75;;;;;;;;;;12825452;22;20015;-72
2023/12/02 12:45:04;;;;;;;11.80;9.90;;;;;;;;;;12826236;22;20019;-72
2023/12/02 12:50:02;;;;;;;11.43;9.60;;;;;;;;;;12825303;22;20439;-72
2023/12/02 12:54:59;;;;;;;12.82;9.65;;;;;;;;;;12824252;22;20023;-72
2023/12/02 12:59:58;;;;;;;10.18;9.18;;;;;;;;;;12822642;22;20334;-72
2023/12/02 13:04:59;;;;;;;10.07;8.50;;;;;;;;;;12824628;22;20023;-72
2023/12/02 13:09:59;;;;;;;11.02;9.35;;;;;;;;;;12823229;22;20563;-72
2023/12/02 13:15:02;;;;;;;10.07;9.15;;;;;;;;;;12824243;22;20023;-72
2023/12/02 13:20:00;;;;;;;11.25;9.23;;;;;;;;;;12823759;22;20023;-72
2023/12/02 13:25:16;;;;;;;9.25;8.25;;;;;;;;;;12823504;22;20027;-72
2023/12/02 13:30:13;;;;;;;9.70;8.70;;;;;;;;;;12822255;22;20015;-72
2023/12/02 13:35:14;;;;;;;9.57;8.27;;;;;;;;;;12823182;22;20024;-72
2023/12/02 13:40:12;;;;;;;10.40;8.98;;;;;;;;;;12824452;22;20380;-72
2023/12/02 13:45:09;;;;;;;9.52;8.63;;;;;;;;;;12823262;22;20664;-71
2023/12/02 13:50:07;;;;;;;12.20;9.05;;;;;;;;;;12823409;22;20023;-73
2023/12/02 13:55:09;;;;;;;9.85;8.68;;;;;;;;;;12823277;22;20020;-72
2023/12/02 14:00:06;;;;;;;;;;;;;;;;;;12822251;22;20349;-72
2023/12/02 14:05:07;;;;;;;11.77;8.65;;;;;;;;;;12823284;22;19950;-72
2023/12/02 14:10:04;;;;;;;8.85;8.02;;;;;;;;;;12823939;22;20026;-72
2023/12/02 14:15:09;;;;;;;10.52;9.13;;;;;;;;;;12823275;22;20038;-72
2023/12/02 14:20:22;;;;;;;9.18;8.23;;;;;;;;;;12822433;22;20033;-71
2023/12/02 14:25:27;;;;;;;12.10;7.93;;;;;;;;;;12823394;22;20027;-71
2023/12/02 14:30:27;;;;;;;8.88;7.97;;;;;;;;;;12823589;22;20495;-71
2023/12/02 14:35:31;;;;;;;10.30;8.18;;;;;;;;;;12823310;22;20019;-72
2023/12/02 14:40:39;;;;;;;10.40;9.25;;;;;;;;;;12822331;22;20094;-71
2023/12/02 14:45:36;;;;;;;9.75;8.85;;;;;;;;;;12823305;22;20015;-72
2023/12/02 14:50:33;;;;;;;11.18;9.02;;;;;;;;;;12823238;22;20019;-72
2023/12/02 14:55:29;;;;;;;9.70;8.75;;;;;;;;;;12821592;22;20023;-72
2023/12/02 15:00:26;;;;;;;14.27;9.77;;;;;;;;;;12821720;22;20019;-72
2023/12/02 15:05:29;;;;;;;11.25;9.30;;;;;;;;;;12823065;22;20011;-71
2023/12/02 15:10:26;;;;;;;12.73;10.57;;;;;;;;;;12821977;22;20047;-72
2023/12/02 15:15:43;;;;;;;12.40;10.77;;;;;;;;;;12822386;22;20047;-72
2023/12/02 15:20:39;;;;;;;12.63;10.38;;;;;;;;;;12822025;22;20027;-72
2023/12/02 15:25:36;;;;;;;15.90;12.25;;;;;;;;;;12820999;22;20505;-72
2023/12/02 15:30:32;;;;;;;14.38;12.13;;;;;;;;;;12822308;22;20023;-72
2023/12/02 15:35:29;;;;;;;13.07;11.38;;;;;;;;;;12826364;22;20114;-71
2023/12/02 15:40:25;;;;;;;12.82;11.52;;;;;;;;;;12829079;22;20110;-71
2023/12/02 15:45:22;;;;;;;13.98;11.07;;;;;;;;;;12828976;22;21061;-71
2023/12/02 15:50:18;;;;;;;14.63;11.63;;;;;;;;;;12828826;22;20069;-71
2023/12/02 15:55:14;;;;;;;13.18;11.00;;;;;;;;;;12827963;22;20015;-72
2023/12/02 16:00:13;;;;;;;11.70;10.60;;;;;;;;;;12828297;22;20015;-72
2023/12/02 16:05:13;;;;;;;12.00;10.80;;;;;;;;;;12825499;22;20779;-72
2023/12/02 16:10:13;;;;;;;12.95;10.70;;;;;;;;;;12828472;22;20023;-71
2023/12/02 16:15:09;;;;;;;14.20;10.98;;;;;;;;;;12829142;22;20042;-71
2023/12/02 16:20:06;;;;;;;13.60;11.43;;;;;;;;;;12828259;22;20023;-72
2023/12/02 16:25:03;;;;;;;18.40;12.82;;;;;;;;;;12827103;22;20472;-72
2023/12/02 16:30:00;;;;;;;14.20;12.07;;;;;;;;;;12829597;22;20019;-71
2023/12/02 16:34:56;;;;;;;13.68;12.27;;;;;;;;;;12827600;22;20023;-71
2023/12/02 16:39:52;;;;;;;19.13;12.70;;;;;;;;;;12827859;22;20094;-71
2023/12/02 16:44:49;;;;;;;15.27;12.88;;;;;;;;;;12825492;22;20023;-71
2023/12/02 16:49:45;;;;;;;13.30;11.90;;;;;;;;;;12824514;22;20364;-71
2023/12/02 16:54:42;;;;;;;13.05;11.70;;;;;;;;;;12824219;22;20027;-71
2023/12/02 16:59:44;;;;;;;14.30;10.98;;;;;;;;;;12824455;22;20015;-72
2023/12/02 17:04:40;;;;;;;;;;;;;;;;;;12824583;22;20027;-72
2023/12/02 17:09:38;;;;;;;12.68;11.38;;;;;;;;;;12824212;22;19969;-71
2023/12/02 17:14:35;;;;;;;16.95;11.77;;;;;;;;;;12823883;22;20043;-71
2023/12/02 17:19:32;;;;;;;15.32;11.63;;;;;;;;;;12823881;22;20019;-72
2023/12/02 17:24:37;;;;;;;14.65;12.68;;;;;;;;;;12823768;22;20023;-72
2023/12/02 17:29:35;;;;;;;16.08;13.07;;;;;;;;;;12823673;22;20704;-71
2023/12/02 17:34:31;;;;;;;14.13;12.65;;;;;;;;;;12823923;22;20026;-71
2023/12/02 17:39:28;;;;;;;16.98;13.02;;;;;;;;;;12823776;22;20019;-72
2023/12/02 17:44:24;;;;;;;16.23;13.55;;;;;;;;;;12822246;22;20027;-71
2023/12/02 17:49:21;;;;;;;16.52;13.55;;;;;;;;;;12822293;22;20023;-72
2023/12/02 17:54:17;;;;;;;17.75;13.80;;;;;;;;;;12823593;22;20023;-71
2023/12/02 17:59:14;;;;;;;16.90;13.55;;;;;;;;;;12822436;22;20047;-71
2023/12/02 18:04:10;;;;;;;16.42;13.40;;;;;;;;;;12822606;22;20047;-72
2023/12/02 18:09:07;;;;;;;14.98;13.27;;;;;;;;;;12823230;22;20107;-71
2023/12/02 18:14:03;;;;;;;18.20;13.57;;;;;;;;;;12822124;22;20401;-72
2023/12/02 18:19:00;;;;;;;18.55;14.07;;;;;;;;;;12823692;22;20019;-73
2023/12/02 18:23:57;;;;;;;15.73;13.93;;;;;;;;;;12821640;22;20473;-73
2023/12/02 18:28:54;;;;;;;16.52;13.45;;;;;;;;;;12822506;22;20072;-73
2023/12/02 18:33:50;;;;;;;16.08;13.20;;;;;;;;;;12822311;22;20015;-72
2023/12/02 18:38:47;;;;;;;22.33;13.57;;;;;;;;;;12821823;22;20030;-72
2023/12/02 18:43:43;;;;;;;15.40;12.95;;;;;;;;;;12821915;22;20019;-73
2023/12/02 18:48:40;;;;;;;17.95;13.02;;;;;;;;;;12822448;22;20361;-72
2023/12/02 18:53:36;;;;;;;22.20;13.25;;;;;;;;;;12821183;22;20098;-72
2023/12/02 18:58:33;;;;;;;16.45;12.73;;;;;;;;;;12820508;22;20053;-72
2023/12/02 19:03:29;;;;;;;16.55;13.70;;;;;;;;;;12821433;22;20073;-72
2023/12/02 19:08:25;;;;;;;16.80;14.35;;;;;;;;;;12821465;22;20050;-72
2023/12/02 19:13:22;;;;;;;17.80;14.63;;;;;;;;;;12819643;22;20058;-72
2023/12/02 19:18:18;;;;;;;17.77;14.77;;;;;;;;;;12821655;22;20038;-72
2023/12/02 19:23:14;;;;;;;21.05;15.52;;;;;;;;;;12820736;22;20031;-72
2023/12/02 19:28:11;;;;;;;20.95;15.55;;;;;;;;;;12822142;22;20023;-73
2023/12/02 19:33:07;;;;;;;24.02;16.90;;;;;;;;;;12821432;22;20029;-73
2023/12/02 19:38:04;;;;;;;26.55;18.13;;;;;;;;;;12821376;22;20477;-72
2023/12/02 19:43:01;;;;;;;26.73;19.38;;;;;;;;;;12821147;22;20049;-72
2023/12/02 19:47:57;;;;;;;24.30;17.55;;;;;;;;;;12820895;22;20031;-73
2023/12/02 19:52:54;;;;;;;30.08;18.48;;;;;;;;;;12820163;22;20023;-72
2023/12/02 19:57:51;;;;;;;29.08;19.60;;;;;;;;;;12821949;22;20019;-72
2023/12/02 20:02:50;;;;;;;29.60;19.65;;;;;;;;;;12821142;22;20023;-72
2023/12/02 20:07:47;;;;;;;32.45;19.70;;;;;;;;;;12821464;22;20019;-73
2023/12/02 20:12:43;;;;;;;32.42;18.92;;;;;;;;;;12820691;22;20027;-72
2023/12/02 20:17:43;;;;;;;30.23;19.17;;;;;;;;;;12819213;22;20077;-72
2023/12/02 20:22:39;;;;;;;28.17;19.02;;;;;;;;;;12823693;22;20023;-72
2023/12/02 20:27:36;;;;;;;28.25;19.60;;;;;;;;;;12825046;22;20023;-73
2023/12/02 20:32:32;;;;;;;30.05;18.58;;;;;;;;;;12824891;22;20150;-72
2023/12/02 20:37:29;;;;;;;26.60;18.90;;;;;;;;;;12824687;22;20034;-72
2023/12/02 20:42:25;;;;;;;26.75;17.38;;;;;;;;;;12819471;22;20502;-72
2023/12/02 20:47:22;;;;;;;32.97;18.48;;;;;;;;;;12824786;22;20536;-72
2023/12/02 20:52:18;;;;;;;31.13;19.45;;;;;;;;;;12824526;22;20102;-71
2023/12/02 20:57:14;;;;;;;34.33;20.85;;;;;;;;;;12825431;22;20049;-72
2023/12/02 21:02:11;;;;;;;33.42;19.75;;;;;;;;;;12824356;22;20115;-72
2023/12/02 21:07:07;;;;;;;31.60;18.88;;;;;;;;;;12825206;22;20392;-72
2023/12/02 21:12:04;;;;;;;29.88;20.00;;;;;;;;;;12824370;22;20038;-72
2023/12/02 21:17:01;;;;;;;27.92;19.38;;;;;;;;;;12823551;22;20045;-72
2023/12/02 21:21:57;;;;;;;31.60;19.23;;;;;;;;;;12823762;22;20369;-72
2023/12/02 21:26:53;;;;;;;32.53;19.92;;;;;;;;;;12823846;22;20456;-72
2023/12/02 21:31:50;;;;;;;33.67;19.63;;;;;;;;;;12822044;22;20469;-72
2023/12/02 21:36:47;;;;;;;29.15;19.73;;;;;;;;;;12823614;22;20023;-72
2023/12/02 21:41:43;;;;;;;33.58;18.88;;;;;;;;;;12823262;22;20350;-72
2023/12/02 21:46:40;;;;;;;32.53;18.98;;;;;;;;;;12817538;22;20023;-72
2023/12/02 21:51:41;;;;;;;30.48;20.20;;;;;;;;;;12822961;22;20357;-72
2023/12/02 21:56:48;;;;;;;25.85;17.73;;;;;;;;;;12821744;22;20076;-73
2023/12/02 22:01:45;;;;;;;37.05;21.50;;;;;;;;;;12822519;22;20038;-73
2023/12/02 22:06:48;;;;;;;29.88;19.20;;;;;;;;;;12823496;22;20034;-72
2023/12/02 22:11:44;;;;;;;32.92;19.75;;;;;;;;;;12821128;22;20080;-72
2023/12/02 22:16:41;;;;;;;40.80;19.88;;;;;;;;;;12823896;22;20491;-72
2023/12/02 22:21:37;;;;;;;30.48;19.00;;;;;;;;;;12823178;22;20024;-72
2023/12/02 22:26:33;;;;;;;31.13;18.00;;;;;;;;;;12823022;22;20107;-72
2023/12/02 22:31:31;;;;;;;28.08;17.70;;;;;;;;;;12823749;22;20034;-73
2023/12/02 22:36:27;;;;;;;26.30;17.08;;;;;;;;;;12822809;22;20108;-72
2023/12/02 22:41:24;;;;;;;30.85;17.42;;;;;;;;;;12823244;22;20031;-72
2023/12/02 22:46:21;;;;;;;29.27;18.02;;;;;;;;;;12815998;22;20496;-72
2023/12/02 22:51:23;;;;;;;32.38;19.23;;;;;;;;;;12823518;22;20030;-72
2023/12/02 22:56:23;;;;;;;32.10;18.70;;;;;;;;;;12823813;22;20173;-72
2023/12/02 23:01:32;;;;;;;24.25;17.35;;;;;;;;;;12823250;22;20027;-73
2023/12/02 23:06:29;;;;;;;29.58;17.20;;;;;;;;;;12822806;22;20023;-72
2023/12/02 23:11:35;;;;;;;27.33;17.25;;;;;;;;;;12820342;22;20027;-72
2023/12/02 23:16:36;;;;;;;28.60;17.70;;;;;;;;;;12822125;22;20031;-73
2023/12/02 23:21:33;;;;;;;30.43;18.43;;;;;;;;;;12822367;22;20080;-73
2023/12/02 23:26:30;;;;;;;31.92;18.90;;;;;;;;;;12821750;22;20053;-73
2023/12/02 23:31:26;;;;;;;29.27;17.65;;;;;;;;;;12822498;22;20076;-72
2023/12/02 23:36:22;;;;;;;25.10;16.88;;;;;;;;;;12820757;22;20088;-72
2023/12/02 23:41:19;;;;;;;33.10;18.65;;;;;;;;;;12819742;22;20114;-73
2023/12/02 23:46:16;;;;;;;32.58;18.08;;;;;;;;;;12821262;22;20391;-73
2023/12/02 23:51:12;;;;;;;31.73;18.92;;;;;;;;;;12820749;22;20476;-73
2023/12/02 23:56:09;;;;;;;30.63;18.02;;;;;;;;;;12823665;22;20058;-72
